Time;durP1;ratioP1;P1;durP2;ratioP2;P2;SDS_P1;SDS_P2;PMS_P1;PMS_P2;Temp;Humidity;BMP_temperature;BMP_pressure;BME280_temperature;BME280_humidity;BME280_pressure;Samples;Min_cycle;Max_cycle;Signal;HPM_P1;HPM_P2
2023/05/18 00:02:17;;;;;;;4.23;1.73;;;;;;;8.22;81.58;102807.72;5090677;28;20441;-36
2023/05/18 00:04:43;;;;;;;8.10;1.95;;;;;;;8.09;82.04;102807.34;5090513;28;20030;-36
2023/05/18 00:07:09;;;;;;;7.25;2.20;;;;;;;8.07;81.94;102804.84;5089995;28;20032;-35
2023/05/18 00:09:35;;;;;;;;;;;;;;;8.25;79.75;102802.00;5090253;28;20081;-35
2023/05/18 00:12:01;;;;;;;9.23;2.30;;;;;;;8.16;82.36;102805.69;5080980;28;19919;-36
2023/05/18 00:14:27;;;;;;;6.18;1.73;;;;;;;8.05;83.05;102809.53;5075067;28;20032;-36
2023/05/18 00:16:53;;;;;;;8.82;1.85;;;;;;;8.10;81.89;102803.63;5076592;28;20033;-36
2023/05/18 00:19:20;;;;;;;6.80;2.10;;;;;;;8.05;81.88;102806.00;5075809;28;20032;-36
2023/05/18 00:21:47;;;;;;;5.30;2.15;;;;;;;7.88;83.29;102803.28;5076431;28;20085;-35
2023/05/18 00:24:13;;;;;;;4.85;1.77;;;;;;;7.87;84.26;102804.28;5075815;28;20033;-36
2023/05/18 00:26:40;;;;;;;5.30;1.83;;;;;;;7.90;83.11;102814.72;5075799;28;20029;-36
2023/05/18 00:29:07;;;;;;;7.03;2.30;;;;;;;7.75;84.31;102798.38;5076815;28;20107;-35
2023/05/18 00:31:35;;;;;;;;;;;;;;;8.07;80.69;102817.47;5076997;28;20086;-35
2023/05/18 00:34:01;;;;;;;;;;;;;;;8.08;79.87;102811.91;5076414;28;19954;-35
2023/05/18 00:36:26;;;;;;;;;;;;;;;8.08;80.05;102814.59;5076617;28;19912;-35
2023/05/18 00:38:52;;;;;;;;;;;;;;;8.05;79.54;102812.22;5076260;28;20406;-35
2023/05/18 00:41:17;;;;;;;;;;;;;;;8.06;79.04;102822.00;5076243;28;20348;-35
2023/05/18 00:43:42;;;;;;;;;;;;;;;8.06;78.63;102823.88;5075934;28;20352;-35
2023/05/18 00:46:07;;;;;;;;;;;;;;;8.06;79.20;102821.19;5076476;28;20387;-35
2023/05/18 00:48:32;;;;;;;;;;;;;;;8.04;78.78;102817.78;5076087;28;20412;-35
2023/05/18 00:50:58;;;;;;;;;;;;;;;8.01;79.31;102824.38;5076361;28;20246;-35
2023/05/18 00:53:23;;;;;;;;;;;;;;;7.95;79.36;102820.50;5076597;28;19935;-36
2023/05/18 00:55:48;;;;;;;;;;;;;;;7.91;79.41;102820.97;5075720;28;19954;-36
2023/05/18 00:58:13;;;;;;;;;;;;;;;7.89;79.22;102817.59;5076186;28;19955;-37
2023/05/18 01:00:39;;;;;;;;;;;;;;;7.85;79.41;102827.84;5076583;28;19924;-36
2023/05/18 01:03:05;;;;;;;;;;;;;;;7.81;78.45;102825.66;5076368;28;20386;-35
2023/05/18 01:05:30;;;;;;;;;;;;;;;7.78;78.69;102816.06;5075769;28;20062;-35
2023/05/18 01:07:56;;;;;;;;;;;;;;;7.75;78.31;102816.38;5075358;28;19912;-35
2023/05/18 01:10:21;;;;;;;;;;;;;;;7.74;78.83;102820.06;5075654;28;19919;-36
2023/05/18 01:12:49;;;;;;;;;;;;;;;7.73;79.11;102824.63;5075378;28;19916;-36
2023/05/18 01:15:16;;;;;;;;;;;;;;;7.72;79.13;102822.94;5075887;28;19925;-36
2023/05/18 01:17:59;;;;;;;;;;;;;;;7.69;78.61;102822.41;5075447;28;19912;-36
2023/05/18 01:20:32;;;;;;;;;;;;;;;7.67;78.34;102824.44;5076017;28;19916;-36
2023/05/18 01:23:12;;;;;;;;;;;;;;;7.64;79.16;102830.16;5074478;28;20332;-36
2023/05/18 01:25:39;;;;;;;;;;;;;;;7.62;78.52;102827.63;5075717;28;19970;-36
2023/05/18 01:28:07;;;;;;;;;;;;;;;7.61;79.24;102828.63;5075266;28;19916;-36
2023/05/18 01:30:33;;;;;;;;;;;;;;;7.59;78.80;102837.88;5075258;28;19913;-36
2023/05/18 01:32:58;;;;;;;;;;;;;;;7.57;79.04;102823.75;5075483;28;19912;-36
2023/05/18 01:35:23;;;;;;;;;;;;;;;7.56;78.64;102835.50;5075185;28;19916;-36
2023/05/18 01:37:48;;;;;;;;;;;;;;;7.54;78.47;102829.44;5075418;28;19917;-36
2023/05/18 01:40:14;;;;;;;;;;;;;;;7.53;78.86;102833.16;5075020;28;19923;-36
2023/05/18 01:42:43;;;;;;;;;;;;;;;7.48;79.44;102831.78;5075039;28;19916;-36
2023/05/18 01:45:14;;;;;;;;;;;;;;;7.42;79.84;102835.13;5074768;28;19919;-36
2023/05/18 01:47:41;;;;;;;;;;;;;;;7.40;78.85;102823.66;5075218;28;20272;-36
2023/05/18 01:50:12;;;;;;;;;;;;;;;7.41;79.63;102832.56;5074611;28;19916;-36
2023/05/18 01:52:41;;;;;;;;;;;;;;;7.41;79.17;102830.72;5075112;28;20291;-36
2023/05/18 01:55:08;;;;;;;;;;;;;;;7.41;79.15;102835.25;5074790;28;19964;-36
2023/05/18 01:57:35;;;;;;;;;;;;;;;7.40;79.02;102830.91;5075302;28;20349;-36
2023/05/18 02:00:00;;;;;;;;;;;;;;;7.36;80.08;102833.06;5074617;28;19923;-36
2023/05/18 02:02:26;;;;;;;;;;;;;;;7.31;79.47;102830.00;5074945;28;20276;-36
2023/05/18 02:04:52;;;;;;;;;;;;;;;7.31;79.12;102827.31;5074922;28;19935;-36
2023/05/18 02:07:17;;;;;;;;;;;;;;;7.30;78.97;102820.25;5074550;28;19912;-36
2023/05/18 02:09:45;;;;;;;;;;;;;;;7.28;79.85;102824.97;5074551;28;19912;-36
2023/05/18 02:12:10;;;;;;;;;;;;;;;7.26;80.45;102826.13;5074797;28;20013;-36
2023/05/18 02:14:36;;;;;;;;;;;;;;;7.20;79.87;102823.06;5074479;28;19955;-36
2023/05/18 02:17:01;;;;;;;;;;;;;;;7.19;80.25;102824.06;5074758;28;19912;-36
2023/05/18 02:19:29;;;;;;;;;;;;;;;7.20;80.26;102817.69;5075165;28;19912;-36
2023/05/18 02:21:54;;;;;;;;;;;;;;;7.21;80.44;102821.22;5074908;28;19917;-36
2023/05/18 02:24:21;;;;;;;;;;;;;;;7.21;79.71;102816.66;5074597;28;19919;-36
2023/05/18 02:26:47;;;;;;;;;;;;;;;7.22;80.58;102818.38;5074553;28;19934;-36
2023/05/18 02:29:13;;;;;;;;;;;;;;;7.18;80.87;102813.47;5073980;28;19913;-36
2023/05/18 02:31:38;;;;;;;;;;;;;;;7.16;80.27;102804.72;5073976;28;19913;-36
2023/05/18 02:34:03;;;;;;;;;;;;;;;7.16;80.21;102810.09;5073601;28;19916;-36
2023/05/18 02:36:35;;;;;;;;;;;;;;;7.17;80.59;102809.09;5074124;28;19971;-36
2023/05/18 02:39:01;;;;;;;;;;;;;;;7.13;81.90;102805.06;5104863;28;20417;-36
2023/05/18 02:41:26;;;;;;;;;;;;;;;7.01;82.13;102811.69;5074417;28;19924;-36
2023/05/18 02:43:51;;;;;;;;;;;;;;;6.97;82.69;102805.78;5074107;28;20356;-36
2023/05/18 02:46:16;;;;;;;;;;;;;;;6.92;81.56;102800.03;5074352;28;20357;-36
2023/05/18 02:48:44;;;;;;;;;;;;;;;6.94;81.78;102806.13;5072501;28;20284;-36
2023/05/18 02:51:09;;;;;;;;;;;;;;;6.94;81.17;102812.34;5073982;28;19913;-36
2023/05/18 02:53:34;;;;;;;;;;;;;;;6.97;81.66;102801.25;5074233;28;19912;-36
2023/05/18 02:56:02;;;;;;;;;;;;;;;6.97;81.45;102795.88;5074276;28;19912;-36
2023/05/18 02:58:27;;;;;;;;;;;;;;;6.89;82.22;102811.13;5073579;28;20102;-36
2023/05/18 03:00:58;;;;;;;;;;;;;;;6.85;82.97;102810.59;5075004;28;20421;-36
2023/05/18 03:03:24;;;;;;;;;;;;;;;6.83;82.29;102801.84;5074243;28;19916;-36
2023/05/18 03:05:52;;;;;;;;;;;;;;;6.83;82.70;102804.53;5074198;28;20257;-36
2023/05/18 03:08:21;;;;;;;;;;;;;;;6.82;82.26;102807.38;5073566;28;19975;-36
2023/05/18 03:10:47;;;;;;;;;;;;;;;6.83;82.76;102803.69;5074663;28;20268;-36
2023/05/18 03:13:12;;;;;;;;;;;;;;;6.85;82.20;102807.91;5073509;28;19913;-36
2023/05/18 03:15:38;;;;;;;;;;;;;;;6.79;82.83;102811.25;5074047;28;19912;-36
2023/05/18 03:18:03;;;;;;;;;;;;;;;6.76;82.77;102806.16;5073710;28;20010;-36
2023/05/18 03:20:30;;;;;;;;;;;;;;;6.75;82.66;102817.94;5073432;28;20326;-36
2023/05/18 03:22:55;;;;;;;;;;;;;;;6.74;82.70;102807.34;5073917;28;19962;-36
2023/05/18 03:25:21;;;;;;;;;;;;;;;6.70;82.58;102815.72;5074255;28;19912;-36
2023/05/18 03:27:47;;;;;;;;;;;;;;;6.66;83.39;102814.34;5073902;28;20363;-36
2023/05/18 03:30:12;;;;;;;;;;;;;;;6.64;84.49;102820.88;5073607;28;19917;-36
2023/05/18 03:32:37;;;;;;;;;;;;;;;6.60;83.11;102814.13;5073928;28;19912;-36
2023/05/18 03:35:04;;;;;;;;;;;;;;;6.60;83.14;102820.34;5073613;28;19913;-36
2023/05/18 03:37:29;;;;;;;;;;;;;;;6.59;83.21;102812.44;5073294;28;19966;-36
2023/05/18 03:39:58;;;;;;;;;;;;;;;6.58;85.31;102808.03;5073194;28;19959;-36
2023/05/18 03:42:24;;;;;;;;;;;;;;;6.51;85.93;102812.38;5073754;28;20280;-36
2023/05/18 03:44:49;;;;;;;;;;;;;;;6.48;85.25;102809.97;5073128;28;20418;-36
2023/05/18 03:47:15;;;;;;;;;;;;;;;6.48;84.21;102802.75;5075642;28;19912;-36
2023/05/18 03:49:40;;;;;;;;;;;;;;;6.48;84.28;102805.44;5076858;28;19913;-36
2023/05/18 03:52:05;;;;;;;;;;;;;;;6.46;83.48;102810.16;5077122;28;19956;-36
2023/05/18 03:54:31;;;;;;;;;;;;;;;6.45;84.60;102821.91;5077956;28;19962;-36
2023/05/18 03:56:56;;;;;;;;;;;;;;;6.42;86.33;102816.84;5077667;28;19920;-36
2023/05/18 03:59:22;;;;;;;;;;;;;;;6.40;84.62;102816.16;5076708;28;19916;-36
2023/05/18 04:01:47;;;;;;;;;;;;;;;6.39;84.34;102817.13;5077263;28;20011;-36
2023/05/18 04:04:16;;;;;;;;;;;;;;;6.33;88.45;102821.28;5076959;28;20376;-36
2023/05/18 04:06:42;;;;;;;;;;;;;;;6.32;86.32;102819.59;5077172;28;19912;-36
2023/05/18 04:09:07;;;;;;;;;;;;;;;6.35;84.92;102827.38;5077159;28;20007;-36
2023/05/18 04:11:32;;;;;;;;;;;;;;;6.38;85.13;102826.19;5077120;28;20325;-35
2023/05/18 04:13:59;;;;;;;;;;;;;;;6.42;84.71;102827.59;5076765;28;19968;-36
2023/05/18 04:16:25;;;;;;;;;;;;;;;6.46;84.88;102828.97;5077258;28;19923;-36
2023/05/18 04:18:50;;;;;;;;;;;;;;;6.49;84.30;102830.47;5076694;28;19913;-36
2023/05/18 04:21:16;;;;;;;;;;;;;;;6.49;84.61;102835.84;5076534;28;19912;-36
2023/05/18 04:23:41;;;;;;;;;;;;;;;6.42;84.16;102833.78;5077380;28;20003;-36
2023/05/18 04:26:07;;;;;;;;;;;;;;;6.44;84.02;102837.19;5077165;28;20256;-36
2023/05/18 04:28:33;;;;;;;;;;;;;;;6.51;84.44;102834.72;5076201;28;19916;-36
2023/05/18 04:30:58;;;;;;;;;;;;;;;6.58;83.61;102834.94;5077307;28;19913;-35
2023/05/18 04:33:24;;;;;;;;;;;;;;;6.62;84.09;102839.00;5076371;28;19923;-35
2023/05/18 04:35:54;;;;;;;;;;;;;;;6.68;84.26;102838.38;5076664;28;19948;-35
2023/05/18 04:38:22;;;;;;;;;;;;;;;6.69;83.69;102845.44;5076052;28;19919;-35
2023/05/18 04:40:48;;;;;;;;;;;;;;;6.72;85.27;102840.59;5075937;28;19959;-35
2023/05/18 04:43:14;;;;;;;;;;;;;;;6.73;86.78;102841.41;5076190;28;20088;-35
2023/05/18 04:45:39;;;;;;;;;;;;;;;6.69;86.14;102842.75;5076280;28;19912;-35
2023/05/18 04:48:05;;;;;;;;;;;;;;;6.70;85.18;102839.06;5076189;28;19912;-35
2023/05/18 04:50:30;;;;;;;;;;;;;;;6.68;86.44;102844.56;5076957;28;20029;-36
2023/05/18 04:52:56;;;;;;;;;;;;;;;6.66;86.44;102841.22;5076018;28;20375;-36
2023/05/18 04:55:24;;;;;;;;;;;;;;;6.66;87.09;102849.28;5076879;28;20316;-36
2023/05/18 04:57:52;;;;;;;;;;;;;;;6.69;86.51;102850.84;5075798;28;19913;-36
2023/05/18 05:00:18;;;;;;;;;;;;;;;6.70;87.03;102847.13;5075559;28;19916;-35
2023/05/18 05:02:43;;;;;;;;;;;;;;;6.71;86.06;102846.13;5075765;28;19920;-35
2023/05/18 05:05:08;;;;;;;;;;;;;;;6.74;87.00;102853.88;5076389;28;19991;-35
2023/05/18 05:07:34;;;;;;;;;;;;;;;6.77;86.49;102853.56;5076054;28;20015;-35
2023/05/18 05:09:59;;;;;;;;;;;;;;;6.83;85.88;102855.66;5075998;28;19958;-35
2023/05/18 05:12:24;;;;;;;;;;;;;;;6.88;87.38;102857.84;5075976;28;19913;-35
2023/05/18 05:14:49;;;;;;;;;;;;;;;6.88;87.31;102850.63;5075702;28;19959;-35
2023/05/18 05:17:15;;;;;;;;;;;;;;;6.95;86.74;102853.53;5075650;28;19919;-36
2023/05/18 05:19:41;;;;;;;;;;;;;;;6.91;89.51;102853.00;5075704;28;19963;-36
2023/05/18 05:22:06;;;;;;;;;;;;;;;6.97;87.99;102860.41;5076322;28;19916;-36
2023/05/18 05:24:31;;;;;;;;;;;;;;;6.90;90.59;102854.00;5075440;28;19913;-36
2023/05/18 05:26:56;;;;;;;;;;;;;;;6.89;88.29;102857.69;5075720;28;19912;-36
2023/05/18 05:29:22;;;;;;;;;;;;;;;6.92;88.58;102856.53;5075659;28;19916;-36
2023/05/18 05:31:47;;;;;;;;;;;;;;;6.92;88.13;102856.53;5075341;28;19912;-36
2023/05/18 05:34:12;;;;;;;;;;;;;;;6.99;87.48;102862.13;5075214;28;19912;-36
2023/05/18 05:36:38;;;;;;;;;;;;;;;6.99;89.25;102862.13;5075243;28;19967;-36
2023/05/18 05:39:03;;;;;;;;;;;;;;;7.02;88.48;102853.72;5075069;28;20360;-35
2023/05/18 05:41:29;;;;;;;;;;;;;;;7.07;88.06;102856.78;5075374;28;20061;-35
2023/05/18 05:43:55;;;;;;;;;;;;;;;7.09;87.49;102850.25;5075339;28;20404;-35
2023/05/18 05:46:20;;;;;;;;;;;;;;;7.13;88.28;102846.25;5074974;28;19957;-35
2023/05/18 05:48:46;;;;;;;;;;;;;;;7.12;88.45;102846.38;5075242;28;20011;-35
2023/05/18 05:51:11;;;;;;;;;;;;;;;7.14;88.06;102849.78;5075257;28;19985;-35
2023/05/18 05:53:36;;;;;;;;;;;;;;;7.17;90.11;102858.38;5075132;28;19978;-35
2023/05/18 05:56:01;;;;;;;;;;;;;;;7.26;88.13;102858.41;5075384;28;19963;-35
2023/05/18 05:58:27;;;;;;;;;;;;;;;7.36;88.08;102854.59;5074768;28;20364;-35
2023/05/18 06:00:52;;;;;;;;;;;;;;;7.49;88.73;102855.00;5074943;28;19923;-35
2023/05/18 06:03:17;;;;;;;;;;;;;;;7.62;89.37;102845.63;5074596;28;19934;-35
2023/05/18 06:05:42;;;;;;;;;;;;;;;7.69;88.47;102855.56;5074956;28;19927;-35
2023/05/18 06:08:08;;;;;;;;;;;;;;;7.82;87.48;102848.91;5074560;28;19912;-36
2023/05/18 06:10:33;;;;;;;;;;;;;;;7.99;87.95;102851.44;5073822;28;19962;-35
2023/05/18 06:12:58;;;;;;;;;;;;;;;8.07;87.48;102849.81;5074540;28;19999;-35
2023/05/18 06:15:23;;;;;;;;;;;;;;;8.25;87.50;102848.66;5074449;28;19920;-35
2023/05/18 06:17:49;;;;;;;;;;;;;;;8.42;86.90;102846.84;5074149;28;20003;-35
2023/05/18 06:20:14;;;;;;;;;;;;;;;8.59;86.46;102852.22;5074607;28;19912;-35
2023/05/18 06:22:39;;;;;;;;;;;;;;;8.62;85.12;102852.72;5074383;28;20073;-35
2023/05/18 06:25:05;;;;;;;;;;;;;;;8.64;83.76;102863.38;5075254;28;19912;-35
2023/05/18 06:27:31;;;;;;;;;;;;;;;8.57;82.92;102855.09;5074247;28;19912;-35
2023/05/18 06:29:56;;;;;;;;;;;;;;;8.56;83.13;102858.81;5074250;28;20007;-35
2023/05/18 06:32:21;;;;;;;;;;;;;;;8.54;83.21;102855.44;5073916;28;19955;-35
2023/05/18 06:34:47;;;;;;;;;;;;;;;8.57;83.67;102860.47;5073884;28;19913;-35
2023/05/18 06:37:12;;;;;;;;;;;;;;;8.62;83.34;102866.22;5074131;28;19916;-35
2023/05/18 06:39:37;;;;;;;;;;;;;;;8.62;83.00;102863.53;5073976;28;19916;-35
2023/05/18 06:42:03;;;;;;;;;;;;;;;8.68;83.57;102862.84;5074135;28;20364;-36
2023/05/18 06:44:29;;;;;;;;;;;;;;;8.76;81.68;102867.41;5074028;28;20311;-36
2023/05/18 06:46:54;;;;;;;;;;;;;;;8.84;81.64;102863.88;5074132;28;19916;-35
2023/05/18 06:49:19;;;;;;;;;;;;;;;8.94;81.35;102864.53;5073755;28;19935;-35
2023/05/18 06:51:45;;;;;;;;;;;;;;;9.00;81.37;102861.97;5074223;28;19989;-35
2023/05/18 06:54:10;;;;;;;;;;;;;;;9.19;81.09;102865.31;5073996;28;20387;-36
2023/05/18 06:56:35;;;;;;;;;;;;;;;9.30;79.96;102867.63;5074268;28;20357;-36
2023/05/18 06:59:00;;;;;;;;;;;;;;;9.38;80.76;102864.91;5074562;28;20345;-37
2023/05/18 07:01:25;;;;;;;;;;;;;;;9.55;79.50;102868.38;5073893;28;19916;-37
2023/05/18 07:03:51;;;;;;;;;;;;;;;9.59;75.71;102877.84;5073816;28;19919;-37
2023/05/18 07:06:16;;;;;;;;;;;;;;;9.66;75.69;102877.97;5073881;28;19995;-37
2023/05/18 07:08:42;;;;;;;;;;;;;;;9.48;74.55;102873.66;5074118;28;19935;-37
2023/05/18 07:11:08;;;;;;;;;;;;;;;9.63;76.15;102878.34;5073877;28;19912;-37
2023/05/18 07:13:33;;;;;;;;;;;;;;;9.71;75.10;102887.25;5073730;28;20347;-37
2023/05/18 07:15:59;;;;;;;;;;;;;;;9.79;74.05;102883.66;5073600;28;19912;-37
2023/05/18 07:18:25;;;;;;;;;;;;;;;9.95;74.92;102871.91;5074026;28;19923;-37
2023/05/18 07:20:50;;;;;;;;;;;;;;;10.10;73.92;102882.81;5073940;28;20327;-35
2023/05/18 07:23:16;;;;;;;;;;;;;;;10.16;72.96;102879.41;5078034;28;19912;-35
2023/05/18 07:25:41;;;;;;;;;;;;;;;10.34;72.94;102881.84;5077784;28;19916;-35
2023/05/18 07:28:06;;;;;;;;;;;;;;;10.41;72.01;102872.84;5077665;28;20287;-36
2023/05/18 07:30:32;;;;;;;;;;;;;;;10.56;72.76;102881.00;5076705;28;19913;-36
2023/05/18 07:32:57;;;;;;;;;;;;;;;10.73;73.20;102887.09;5077265;28;20283;-37
2023/05/18 07:35:22;;;;;;;;;;;;;;;10.79;72.03;102878.28;5077930;28;19919;-36
2023/05/18 07:37:48;;;;;;;;;;;;;;;10.84;69.62;102884.00;5077449;28;19918;-37
2023/05/18 07:40:13;;;;;;;;;;;;;;;10.90;69.96;102885.97;5077697;28;20360;-36
2023/05/18 07:42:39;;;;;;;;;;;;;;;10.80;69.87;102886.22;5077031;28;19912;-37
2023/05/18 07:45:05;;;;;;;;;;;;;;;10.93;70.55;102888.31;5077614;28;19912;-36
2023/05/18 07:47:30;;;;;;;;;;;;;;;10.94;68.10;102889.16;5077294;28;19912;-37
2023/05/18 07:49:56;;;;;;;;;;;;;;;10.92;68.44;102894.72;5077483;28;19913;-37
2023/05/18 07:52:21;;;;;;;;;;;;;;;11.03;69.51;102899.72;5076892;28;19912;-37
2023/05/18 07:54:46;;;;;;;;;;;;;;;11.12;69.16;102902.31;5077432;28;19920;-36
2023/05/18 07:57:11;;;;;;;;;;;;;;;11.23;68.74;102899.19;5077117;28;19927;-36
2023/05/18 07:59:37;;;;;;;;;;;;;;;11.04;67.42;102895.97;5076495;28;19916;-37
2023/05/18 08:02:02;;;;;;;;;;;;;;;10.96;68.16;102906.03;5077341;28;19938;-36
2023/05/18 08:04:27;;;;;;;;;;;;;;;11.10;68.81;102897.09;5076981;28;19936;-36
2023/05/18 08:06:54;;;;;;;;;;;;;;;11.32;68.20;102907.03;5077218;28;20372;-37
2023/05/18 08:09:20;;;;;;;;;;;;;;;11.36;68.44;102904.78;5076854;28;19912;-37
2023/05/18 08:11:46;;;;;;;;;;;;;;;11.44;68.48;102907.41;5077160;28;19912;-37
2023/05/18 08:14:11;;;;;;;;;;;;;;;11.38;65.44;102907.31;5076767;28;20383;-37
2023/05/18 08:16:37;;;;;;;;;;;;;;;11.31;65.65;102907.19;5076479;28;19965;-37
2023/05/18 08:19:02;;;;;;;;;;;;;;;11.16;65.77;102906.34;5076728;28;19919;-37
2023/05/18 08:21:28;;;;;;;;;;;;;;;11.35;67.67;102903.94;5076950;28;19913;-37
2023/05/18 08:23:53;;;;;;;;;;;;;;;11.58;67.71;102908.44;5076630;28;19912;-36
2023/05/18 08:26:19;;;;;;;;;;;;;;;11.75;64.82;102899.06;5076664;28;19918;-36
2023/05/18 08:28:44;;;;;;;;;;;;;;;11.82;64.68;102896.47;5076182;28;19912;-37
2023/05/18 08:31:11;;;;;;;;;;;;;;;11.82;62.74;102896.47;5076494;28;19912;-37
2023/05/18 08:33:36;;;;;;;;;;;;;;;11.89;64.43;102891.13;5075951;28;19920;-36
2023/05/18 08:36:01;;;;;;;;;;;;;;;12.16;65.68;102889.59;5077203;28;19920;-37
2023/05/18 08:38:27;;;;;;;;;;;;;;;12.31;63.63;102882.22;5076343;28;19974;-37
2023/05/18 08:41:07;;;;;;;;;;;;;;;12.53;64.05;102885.78;5076269;28;19935;-36
2023/05/18 08:43:36;;;;;;;;;;;;;;;12.66;61.51;102885.91;5076864;28;19919;-37
2023/05/18 08:46:25;;;;;;;;;;;;;;;12.93;62.99;102883.41;5076886;28;19920;-37
2023/05/18 08:48:51;;;;;;;;;;;;;;;13.10;63.37;102879.38;5076475;28;19966;-37
2023/05/18 08:51:18;;;;;;;;;;;;;;;13.06;59.82;102878.06;5076128;28;19957;-37
2023/05/18 08:53:44;;;;;;;;;;;;;;;12.98;59.85;102880.94;5076922;28;20268;-37
2023/05/18 08:56:10;;;;;;;;;;;;;;;12.70;60.03;102878.22;5076665;28;19920;-37
2023/05/18 08:58:42;;;;;;;;;;;;;;;12.65;58.41;102875.25;5076204;28;19919;-37
2023/05/18 09:01:08;;;;;;;;;;;;;;;12.72;59.88;102868.81;5076742;28;20337;-37
2023/05/18 09:03:33;;;;;;;;;;;;;;;12.88;59.12;102867.69;5075844;28;19919;-36
2023/05/18 09:05:59;;;;;;;;;;;;;;;13.03;57.62;102865.75;5076498;28;20312;-37
2023/05/18 09:08:25;;;;;;;;;;;;;;;13.05;59.67;102871.81;5075512;28;20363;-37
2023/05/18 09:10:51;;;;;;;;;;;;;;;13.05;59.60;102860.09;5076662;28;19912;-37
2023/05/18 09:13:18;;;;;;;;;;;;;;;13.10;58.91;102866.63;5075739;28;20006;-37
2023/05/18 09:15:44;;;;;;;;;;;;;;;13.34;59.56;102856.34;5076839;28;19920;-37
2023/05/18 09:18:09;;;;;;;;;;;;;;;13.42;57.42;102863.47;5075589;28;20379;-37
2023/05/18 09:20:34;;;;;;;;;;;;;;;13.43;57.21;102857.03;5076366;28;19919;-37
2023/05/18 09:22:59;;;;;;;;;;;;;;;13.56;58.78;102851.63;5076346;28;20010;-37
2023/05/18 09:25:26;;;;;;;;;;;;;;;13.55;54.75;102852.69;5075247;28;20007;-37
2023/05/18 09:27:52;;;;;;;;;;;;;;;13.62;55.33;102859.00;5075714;28;19916;-37
2023/05/18 09:30:17;;;;;;;;;;;;;;;13.84;57.49;102857.81;5075330;28;20333;-37
2023/05/18 09:32:45;;;;;;;;;;;;;;;14.02;54.12;102865.44;5075001;28;19938;-37
2023/05/18 09:35:11;;;;;;;;;;;;;;;14.20;55.19;102853.97;5075563;28;20015;-37
2023/05/18 09:37:39;;;;;;;;;;;;;;;14.14;52.24;102852.06;5075213;28;20384;-37
2023/05/18 09:40:06;;;;;;;;;;;;;;;14.14;51.89;102841.16;5075350;28;19912;-37
2023/05/18 09:42:35;;;;;;;;;;;;;;;14.35;54.82;102843.72;5075106;28;19912;-37
2023/05/18 09:45:00;;;;;;;;;;;;;;;14.52;54.19;102844.19;5074224;28;20372;-37
2023/05/18 09:47:26;;;;;;;;;;;;;;;13.93;52.60;102850.34;5075243;28;19913;-37
2023/05/18 09:49:51;;;;;;;;;;;;;;;13.93;52.40;102853.06;5073653;28;19912;-37
2023/05/18 09:52:17;;;;;;;;;;;;;;;13.99;52.50;102849.50;5074599;28;19919;-37
2023/05/18 09:54:42;;;;;;;;;;;;;;;13.95;53.00;102847.41;5074822;28;20011;-37
2023/05/18 09:57:08;;;;;;;;;;;;;;;13.70;53.79;102845.22;5075444;28;20007;-37
2023/05/18 09:59:35;;;;;;;;;;;;;;;13.67;54.58;102839.38;5074447;28;19923;-36
2023/05/18 10:02:04;;;;;;;;;;;;;;;13.91;55.16;102836.13;5074754;28;19923;-37
2023/05/18 10:04:42;;;;;;;;;;;;;;;13.27;53.12;102845.44;5074963;28;20014;-37
2023/05/18 10:07:08;;;;;;;;;;;;;;;13.61;53.66;102839.13;5075176;28;19916;-37
2023/05/18 10:09:33;;;;;;;;;;;;;;;13.77;54.50;102835.22;5074891;28;20019;-37
2023/05/18 10:11:58;;;;;;;;;;;;;;;13.96;53.03;102830.91;5075491;28;19919;-37
2023/05/18 10:14:26;;;;;;;;;;;;;;;14.01;50.57;102828.41;5074466;28;19923;-37
2023/05/18 10:16:51;;;;;;;;;;;;;;;14.13;52.59;102834.06;5075333;28;19981;-37
2023/05/18 10:19:17;;;;;;;;;;;;;;;14.23;51.18;102825.50;5074467;28;19913;-37
2023/05/18 10:21:43;;;;;;;;;;;;;;;14.43;52.47;102826.34;5074881;28;19919;-37
2023/05/18 10:24:11;;;;;;;;;;;;;;;14.54;50.84;102824.91;5074327;28;20221;-37
2023/05/18 10:26:37;;;;;;;;;;;;;;;14.77;50.89;102817.16;5074238;28;20003;-37
2023/05/18 10:29:03;;;;;;;;;;;;;;;15.01;51.17;102821.09;5074239;28;20352;-37
2023/05/18 10:31:28;;;;;;;;;;;;;;;15.06;50.29;102815.00;5074486;28;19919;-37
2023/05/18 10:33:54;;;;;;;;;;;;;;;14.98;50.30;102821.50;5074163;28;19923;-37
2023/05/18 10:36:21;;;;;;;;;;;;;;;15.15;50.10;102817.31;5073917;28;19913;-37
2023/05/18 10:38:47;;;;;;;;;;;;;;;15.22;50.19;102820.00;5074120;28;19916;-37
2023/05/18 10:41:12;;;;;;;;;;;;;;;15.22;49.52;102816.44;5074897;28;19958;-37
2023/05/18 10:43:39;;;;;;;;;;;;;;;15.42;49.90;102825.38;5073820;28;19982;-37
2023/05/18 10:46:06;;;;;;;;;;;;;;;15.19;47.01;102821.28;5074439;28;19912;-37
2023/05/18 10:48:36;;;;;;;;;;;;;;;14.83;47.73;102807.28;5073695;28;19956;-37
2023/05/18 10:51:04;;;;;;;;;;;;;;;14.92;49.74;102808.75;5074584;28;20003;-37
2023/05/18 10:53:30;;;;;;;;;;;;;;;14.42;49.40;102819.22;5073738;28;19912;-37
2023/05/18 10:55:55;;;;;;;;;;;;;;;14.71;51.27;102818.00;5074637;28;20003;-36
2023/05/18 10:58:23;;;;;;;;;;;;;;;14.80;49.92;102802.28;5073692;28;19912;-37
2023/05/18 11:00:50;;;;;;;;;;;;;;;14.71;48.88;102809.00;5073923;28;19920;-37
2023/05/18 11:03:16;;;;;;;;;;;;;;;14.60;49.96;102805.88;5073927;28;19919;-38
2023/05/18 11:05:42;;;;;;;;;;;;;;;14.91;49.71;102809.81;5073703;28;19958;-37
2023/05/18 11:08:08;;;;;;;;;;;;;;;15.09;49.15;102803.69;5074121;28;20007;-36
2023/05/18 11:10:41;;;;;;;;;;;;;;;14.88;46.60;102796.59;5073614;28;20371;-36
2023/05/18 11:13:06;;;;;;;;;;;;;;;14.78;47.29;102793.47;5074674;28;20319;-36
2023/05/18 11:15:50;;;;;;;;;;;;;;;14.85;48.96;102797.03;5074126;28;19912;-36
2023/05/18 11:18:15;;;;;;;;;;;;;;;15.31;50.00;102786.00;5073703;28;19912;-36
2023/05/18 11:20:40;;;;;;;;;;;;;;;15.57;46.86;102789.69;5074254;28;20370;-36
2023/05/18 11:23:06;;;;;;;;;;;;;;;15.77;47.78;102781.44;5073371;28;19962;-36
2023/05/18 11:25:31;;;;;;;;;;;;;;;15.62;48.13;102784.44;5073451;28;19912;-36
2023/05/18 11:28:04;;;;;;;;;;;;;;;15.56;47.51;102786.09;5073634;28;19912;-36
2023/05/18 11:30:32;;;;;;;;;;;;;;;15.63;49.24;102786.97;5074022;28;19919;-36
2023/05/18 11:33:07;;;;;;;;;;;;;;;15.77;47.12;102789.63;5073613;28;19912;-36
2023/05/18 11:35:33;;;;;;;;;;;;;;;15.98;47.69;102789.28;5073560;28;19999;-36
2023/05/18 11:38:08;;;;;;;;;;;;;;;15.66;46.94;102775.63;5073523;28;19912;-37
2023/05/18 11:40:46;;;;;;;;;;;;;;;15.90;49.69;102781.34;5074350;28;19962;-36
2023/05/18 11:43:25;;;;;;;;;;;;;;;16.24;50.27;102771.84;5074117;28;19919;-36
2023/05/18 11:45:54;;;;;;;;;;;;;;;16.35;47.71;102776.63;5073325;28;20353;-36
2023/05/18 11:48:26;;;;;;;;;;;;;;;16.30;47.97;102768.25;5074285;28;19913;-36
2023/05/18 11:50:55;;;;;;;;;;;;;;;16.46;47.04;102775.88;5073784;28;19952;-36
2023/05/18 11:53:25;;;;;;;;;;;;;;;16.30;46.40;102771.00;5073419;28;19920;-36
2023/05/18 11:55:56;;;;;;;;;;;;;;;16.42;48.04;102761.00;5073308;28;19913;-36
2023/05/18 11:58:24;;;;;;;;;;;;;;;16.42;47.46;102768.34;5073347;28;19918;-36
2023/05/18 12:00:50;;;;;;;;;;;;;;;16.51;47.29;102766.19;5073800;28;19916;-38
2023/05/18 12:03:16;;;;;;;;;;;;;;;16.56;48.82;102759.00;5073273;28;19919;-36
2023/05/18 12:05:47;;;;;;;;;;;;;;;16.65;46.53;102757.66;5073320;28;19938;-37
2023/05/18 12:08:14;;;;;;;;;;;;;;;16.43;46.00;102756.38;5075952;28;19981;-36
2023/05/18 12:10:40;;;;;;;;;;;;;;;16.34;47.42;102753.09;5076963;28;19919;-36
2023/05/18 12:13:05;;;;;;;;;;;;;;;16.30;46.70;102757.34;5077360;28;19912;-36
2023/05/18 12:15:31;;;;;;;;;;;;;;;16.30;46.96;102753.75;5077366;28;19918;-36
2023/05/18 12:17:57;;;;;;;;;;;;;;;16.21;47.79;102745.84;5076775;28;20326;-36
2023/05/18 12:20:27;;;;;;;;;;;;;;;15.88;46.80;102756.19;5077193;28;19913;-36
2023/05/18 12:22:53;;;;;;;;;;;;;;;15.76;48.33;102747.00;5076394;28;19920;-36
2023/05/18 12:25:20;;;;;;;;;;;;;;;15.73;48.36;102751.03;5077179;28;20365;-36
2023/05/18 12:27:48;;;;;;;;;;;;;;;15.63;48.37;102751.50;5076182;28;19913;-36
2023/05/18 12:30:17;;;;;;;;;;;;;;;15.59;49.08;102747.50;5076567;28;19916;-36
2023/05/18 12:32:44;;;;;;;;;;;;;;;15.43;48.79;102758.94;5076437;28;20249;-36
2023/05/18 12:35:09;;;;;;;;;;;;;;;15.29;49.34;102757.31;5076404;28;19913;-36
2023/05/18 12:37:44;;;;;;;;;;;;;;;15.28;49.55;102756.47;5077030;28;19913;-36